createdAt,value
2023-04-30T00:01:30.976Z,27.04
2023-04-30T00:06:38.289Z,27.02
2023-04-30T00:11:45.548Z,27.04
2023-04-30T00:16:52.867Z,27.09
2023-04-30T00:22:00.293Z,27.12
2023-04-30T00:27:45.431Z,27.02
2023-04-30T00:39:42.868Z,26.89
2023-04-30T00:45:35.438Z,26.83
2023-04-30T00:51:25.981Z,26.71
2023-04-30T00:57:34.246Z,26.61
2023-04-30T01:04:02.849Z,26.47
2023-04-30T01:09:50.474Z,26.35
2023-04-30T01:22:20.564Z,26.08
2023-04-30T01:28:12.172Z,25.99
2023-04-30T01:33:58.988Z,25.90
2023-04-30T01:39:46.319Z,25.80
2023-04-30T01:45:00.488Z,25.74
2023-04-30T01:50:40.932Z,25.65
2023-04-30T01:56:24.199Z,25.56
2023-04-30T02:07:05.702Z,25.39
2023-04-30T02:08:29.572Z,25.46
2023-04-30T02:12:17.501Z,25.32
2023-04-30T02:17:46.733Z,25.27
2023-04-30T02:23:09.823Z,25.21
2023-04-30T02:28:17.711Z,25.15
2023-04-30T02:34:15.477Z,25.07
2023-04-30T02:39:23.031Z,25.01
2023-04-30T02:44:40.249Z,24.99
2023-04-30T02:50:01.008Z,24.85
2023-04-30T02:55:43.344Z,24.79
2023-04-30T03:00:50.938Z,24.74
2023-04-30T03:05:58.834Z,24.68
2023-04-30T03:13:14.105Z,24.64
2023-04-30T03:16:49.579Z,24.60
2023-04-30T03:22:47.284Z,24.47
2023-04-30T03:28:29.591Z,24.49
2023-04-30T03:34:12.025Z,24.42
2023-04-30T03:39:29.853Z,24.32
2023-04-30T03:44:40.427Z,24.23
2023-04-30T03:50:27.799Z,24.21
2023-04-30T03:56:13.029Z,24.20
2023-04-30T04:01:20.691Z,24.06
2023-04-30T04:06:28.468Z,24.05
2023-04-30T04:11:36.136Z,23.94
2023-04-30T04:16:43.991Z,23.92
2023-04-30T04:21:51.882Z,23.85
2023-04-30T04:26:59.568Z,23.79
2023-04-30T04:32:07.717Z,23.68
2023-04-30T04:37:50.092Z,23.67
2023-04-30T04:43:09.828Z,23.60
2023-04-30T04:52:26.161Z,23.54
2023-04-30T04:53:31.184Z,23.47
2023-04-30T04:58:44.761Z,23.60
2023-04-30T05:04:17.756Z,23.62
2023-04-30T05:09:59.124Z,23.66
2023-04-30T05:15:41.412Z,23.60
2023-04-30T05:20:57.402Z,23.72
2023-04-30T05:26:05.123Z,23.70
2023-04-30T05:31:22.305Z,23.65
2023-04-30T05:36:32.409Z,23.61
2023-04-30T05:41:39.906Z,23.47
2023-04-30T05:46:47.366Z,23.44
2023-04-30T05:51:54.915Z,23.27
2023-04-30T05:57:11.076Z,23.40
2023-04-30T06:02:26.295Z,23.55
2023-04-30T06:07:46.306Z,23.54
2023-04-30T06:12:53.787Z,23.46
2023-04-30T06:18:05.998Z,23.40
2023-04-30T06:23:13.322Z,23.47
2023-04-30T06:28:38.228Z,23.17
2023-04-30T06:33:40.973Z,23.20
2023-04-30T06:38:55.004Z,23.32
2023-04-30T06:44:14.851Z,23.29
2023-04-30T06:49:18.876Z,23.37
2023-04-30T06:54:49.794Z,23.28
2023-04-30T06:59:59.014Z,23.32
2023-04-30T07:05:06.585Z,23.37
2023-04-30T07:10:14.260Z,23.20
2023-04-30T07:15:39.609Z,23.01
2023-04-30T07:20:34.516Z,23.09
2023-04-30T07:26:17.186Z,22.95
2023-04-30T07:31:59.889Z,23.01
2023-04-30T07:38:04.268Z,22.98
2023-04-30T07:43:11.531Z,22.88
2023-04-30T07:48:18.754Z,22.76
2023-04-30T07:53:25.997Z,22.79
2023-04-30T07:58:33.236Z,22.77
2023-04-30T08:03:40.765Z,22.91
2023-04-30T08:08:48.825Z,22.98
2023-04-30T08:13:55.301Z,22.77
2023-04-30T08:19:02.516Z,22.80
2023-04-30T08:24:16.009Z,22.97
2023-04-30T08:29:23.396Z,22.73
2023-04-30T08:34:30.613Z,22.75
2023-04-30T08:39:37.770Z,22.72
2023-04-30T08:44:45.077Z,22.84
2023-04-30T08:49:52.572Z,22.66
2023-04-30T08:54:59.533Z,22.82
2023-04-30T09:00:06.978Z,22.85
2023-04-30T09:05:14.342Z,22.53
2023-04-30T09:10:21.439Z,22.72
2023-04-30T09:15:28.630Z,22.76
2023-04-30T09:20:35.851Z,22.61
2023-04-30T09:25:43.044Z,22.37
2023-04-30T09:30:50.288Z,22.39
2023-04-30T09:35:57.622Z,22.47
2023-04-30T09:41:05.053Z,22.50
2023-04-30T09:46:12.255Z,22.46
2023-04-30T09:51:19.682Z,22.58
2023-04-30T09:56:26.905Z,22.51
2023-04-30T10:01:34.103Z,22.60
2023-04-30T10:06:41.557Z,22.86
2023-04-30T10:11:48.482Z,22.80
2023-04-30T10:16:55.723Z,23.06
2023-04-30T10:22:02.874Z,22.81
2023-04-30T10:27:10.121Z,22.71
2023-04-30T10:32:17.468Z,22.81
2023-04-30T10:37:24.558Z,22.76
2023-04-30T10:42:31.705Z,22.76
2023-04-30T10:47:38.892Z,22.79
2023-04-30T10:52:46.085Z,22.85
2023-04-30T10:57:53.234Z,22.70
2023-04-30T11:03:00.454Z,22.67
2023-04-30T11:08:07.648Z,22.72
2023-04-30T11:13:14.822Z,22.75
2023-04-30T11:18:22.023Z,22.73
2023-04-30T11:23:39.401Z,22.73
2023-04-30T11:28:36.494Z,22.64
2023-04-30T11:33:43.657Z,22.93
2023-04-30T11:38:50.943Z,22.81
2023-04-30T11:43:58.113Z,22.86
2023-04-30T11:49:05.297Z,23.06
2023-04-30T11:54:12.530Z,23.06
2023-04-30T11:59:19.693Z,22.99
2023-04-30T12:04:26.890Z,23.05
2023-04-30T12:09:34.366Z,23.06
2023-04-30T12:14:41.523Z,23.08
2023-04-30T12:19:48.720Z,22.94
2023-04-30T12:24:56.012Z,23.08
2023-04-30T12:30:03.112Z,23.11
2023-04-30T12:35:10.268Z,23.10
2023-04-30T12:40:17.459Z,23.14
2023-04-30T12:45:24.632Z,23.11
2023-04-30T12:50:31.821Z,23.11
2023-04-30T12:55:39.062Z,23.18
2023-04-30T13:00:46.204Z,23.18
2023-04-30T13:05:53.373Z,23.29
2023-04-30T13:11:00.561Z,23.27
2023-04-30T13:16:07.842Z,23.32
2023-04-30T13:21:14.938Z,23.30
2023-04-30T13:26:22.165Z,23.37
2023-04-30T13:31:29.462Z,23.51
2023-04-30T13:36:36.628Z,23.61
2023-04-30T13:41:43.966Z,23.65
2023-04-30T13:46:51.220Z,23.64
2023-04-30T13:51:58.449Z,23.72
2023-04-30T13:57:05.759Z,23.80
2023-04-30T14:02:12.978Z,23.80
2023-04-30T14:07:20.248Z,23.73
2023-04-30T14:12:27.515Z,23.73
2023-04-30T14:17:34.724Z,23.69
2023-04-30T14:22:41.860Z,23.62
2023-04-30T14:27:49.166Z,23.64
2023-04-30T14:32:56.356Z,23.71
2023-04-30T14:38:03.511Z,23.61
2023-04-30T14:43:10.735Z,23.65
2023-04-30T14:48:17.951Z,23.70
2023-04-30T14:53:25.146Z,23.83
2023-04-30T14:58:32.389Z,23.87
2023-04-30T15:03:39.685Z,23.94
2023-04-30T15:08:46.846Z,24.00
2023-04-30T15:13:54.047Z,24.03
2023-04-30T15:19:01.192Z,24.09
2023-04-30T15:24:08.398Z,24.11
2023-04-30T15:29:15.602Z,24.14
2023-04-30T15:34:22.773Z,24.14
2023-04-30T15:39:29.943Z,24.16
2023-04-30T15:44:37.221Z,24.17
2023-04-30T15:49:44.413Z,24.23
2023-04-30T15:54:51.693Z,24.27
2023-04-30T15:59:59.026Z,24.27
2023-04-30T16:05:06.177Z,24.29
2023-04-30T16:10:13.546Z,24.34
2023-04-30T16:15:20.875Z,24.38
2023-04-30T16:20:28.223Z,24.41
2023-04-30T16:25:35.466Z,24.44
2023-04-30T16:30:42.715Z,24.48
2023-04-30T16:35:49.890Z,24.47
2023-04-30T16:40:57.083Z,24.50
2023-04-30T16:46:04.697Z,24.51
2023-04-30T16:51:11.945Z,24.56
2023-04-30T16:56:19.141Z,24.57
2023-04-30T17:01:26.379Z,24.58
2023-04-30T17:06:33.678Z,24.60
2023-04-30T17:11:40.778Z,24.62
2023-04-30T17:16:48.349Z,24.62
2023-04-30T17:21:55.715Z,24.65
2023-04-30T17:27:02.982Z,24.65
2023-04-30T17:32:10.581Z,24.69
2023-04-30T17:37:17.926Z,24.79
2023-04-30T17:42:25.478Z,24.89
2023-04-30T17:47:32.962Z,24.94
2023-04-30T17:52:40.318Z,24.94
2023-04-30T17:57:47.820Z,25.06
2023-04-30T18:02:55.282Z,25.12
2023-04-30T18:08:02.504Z,25.13
2023-04-30T18:13:10.051Z,25.12
2023-04-30T18:18:17.471Z,25.16
2023-04-30T18:23:25.068Z,25.14
2023-04-30T18:28:32.506Z,25.07
2023-04-30T18:33:39.741Z,25.02
2023-04-30T18:38:47.213Z,25.07
2023-04-30T18:43:54.909Z,25.13
2023-04-30T18:49:02.410Z,25.22
2023-04-30T18:54:09.926Z,25.29
2023-04-30T18:59:17.204Z,25.32
2023-04-30T19:04:24.466Z,25.32
2023-04-30T19:09:31.886Z,25.39
2023-04-30T19:14:39.313Z,25.38
2023-04-30T19:19:46.890Z,25.48
2023-04-30T19:24:54.603Z,25.48
2023-04-30T19:30:02.241Z,25.51
2023-04-30T19:35:10.466Z,25.54
2023-04-30T19:40:18.776Z,25.59
2023-04-30T19:45:26.497Z,25.65
2023-04-30T19:50:33.931Z,25.67
2023-04-30T19:55:41.512Z,25.71
2023-04-30T20:00:48.763Z,25.69
2023-04-30T20:05:56.417Z,25.74
2023-04-30T20:11:04.060Z,25.76
2023-04-30T20:16:11.038Z,25.77
2023-04-30T20:21:20.571Z,25.74
2023-04-30T20:26:26.184Z,25.75
2023-04-30T20:31:34.508Z,25.73
2023-04-30T20:36:41.796Z,25.72
2023-04-30T20:41:49.153Z,25.69
2023-04-30T20:46:56.818Z,25.69
2023-04-30T20:52:04.430Z,25.64
2023-04-30T20:57:11.808Z,25.64
2023-04-30T21:02:19.122Z,25.63
2023-04-30T21:07:26.395Z,25.64
2023-04-30T21:12:33.667Z,25.64
2023-04-30T21:17:41.022Z,25.63
2023-04-30T21:22:48.330Z,25.62
2023-04-30T21:27:55.532Z,25.63
2023-04-30T21:33:02.833Z,25.60
2023-04-30T21:38:10.161Z,25.59
2023-04-30T21:43:17.390Z,25.60
2023-04-30T21:48:24.666Z,25.58
2023-04-30T21:53:32.071Z,25.68
2023-04-30T21:58:39.333Z,25.77
2023-04-30T22:03:46.554Z,25.81
2023-04-30T22:08:53.818Z,25.83
2023-04-30T22:14:00.988Z,25.92
2023-04-30T22:19:08.216Z,25.91
2023-04-30T22:24:15.461Z,26.01
2023-04-30T22:29:22.710Z,25.99
2023-04-30T22:34:29.971Z,26.05
2023-04-30T22:39:37.226Z,26.09
2023-04-30T22:44:44.375Z,26.12
2023-04-30T22:49:51.563Z,26.17
2023-04-30T22:54:58.760Z,26.18
2023-04-30T23:00:05.935Z,26.20
2023-04-30T23:05:13.139Z,26.20
2023-04-30T23:10:20.446Z,26.22
2023-04-30T23:15:27.688Z,26.23
2023-04-30T23:20:34.881Z,26.23
2023-04-30T23:25:42.179Z,26.28
2023-04-30T23:31:24.677Z,26.28
2023-04-30T23:36:33.103Z,26.20
2023-04-30T23:42:16.903Z,26.10
2023-04-30T23:48:06.977Z,26.02
2023-04-30T23:53:49.623Z,25.93
2023-04-30T23:59:15.055Z,25.91
